sensor_id;sensor_type;location;lat;lon;timestamp;temperature;humidity
5134;DHT22;2585;48.696;10.066;2023-05-10T00:01:32;13.10;92.30
5134;DHT22;2585;48.696;10.066;2023-05-10T00:03:59;13.10;92.30
5134;DHT22;2585;48.696;10.066;2023-05-10T00:06:26;13.10;92.30
5134;DHT22;2585;48.696;10.066;2023-05-10T00:08:53;13.10;92.30
5134;DHT22;2585;48.696;10.066;2023-05-10T00:11:20;13.10;92.30
5134;DHT22;2585;48.696;10.066;2023-05-10T00:13:48;13.10;92.30
5134;DHT22;2585;48.696;10.066;2023-05-10T00:16:15;13.10;92.30
5134;DHT22;2585;48.696;10.066;2023-05-10T00:18:42;13.00;92.30
5134;DHT22;2585;48.696;10.066;2023-05-10T00:21:09;13.00;92.30
5134;DHT22;2585;48.696;10.066;2023-05-10T00:23:36;13.10;92.40
5134;DHT22;2585;48.696;10.066;2023-05-10T00:26:03;13.10;92.40
5134;DHT22;2585;48.696;10.066;2023-05-10T00:28:30;13.00;92.30
5134;DHT22;2585;48.696;10.066;2023-05-10T00:30:57;13.10;92.40
5134;DHT22;2585;48.696;10.066;2023-05-10T00:33:23;13.10;92.40
5134;DHT22;2585;48.696;10.066;2023-05-10T00:35:50;13.10;92.40
5134;DHT22;2585;48.696;10.066;2023-05-10T00:38:17;13.00;92.40
5134;DHT22;2585;48.696;10.066;2023-05-10T00:40:44;13.00;92.40
5134;DHT22;2585;48.696;10.066;2023-05-10T00:43:11;13.00;92.40
5134;DHT22;2585;48.696;10.066;2023-05-10T00:45:39;13.00;92.40
5134;DHT22;2585;48.696;10.066;2023-05-10T00:48:06;13.00;92.40
5134;DHT22;2585;48.696;10.066;2023-05-10T00:50:33;13.00;92.40
5134;DHT22;2585;48.696;10.066;2023-05-10T00:53:01;12.90;92.40
5134;DHT22;2585;48.696;10.066;2023-05-10T00:55:28;12.90;92.40
5134;DHT22;2585;48.696;10.066;2023-05-10T00:57:55;12.90;92.40
5134;DHT22;2585;48.696;10.066;2023-05-10T01:00:22;12.80;92.40
5134;DHT22;2585;48.696;10.066;2023-05-10T01:02:49;12.90;92.40
5134;DHT22;2585;48.696;10.066;2023-05-10T01:05:16;12.90;92.40
5134;DHT22;2585;48.696;10.066;2023-05-10T01:07:43;12.90;92.40
5134;DHT22;2585;48.696;10.066;2023-05-10T01:13:55;12.80;92.40
5134;DHT22;2585;48.696;10.066;2023-05-10T01:16:23;12.70;92.30
5134;DHT22;2585;48.696;10.066;2023-05-10T01:18:51;12.70;92.30
5134;DHT22;2585;48.696;10.066;2023-05-10T01:36:05;12.40;92.20
5134;DHT22;2585;48.696;10.066;2023-05-10T01:38:51;12.50;92.20
5134;DHT22;2585;48.696;10.066;2023-05-10T01:49:45;12.30;92.20
5134;DHT22;2585;48.696;10.066;2023-05-10T01:52:16;12.30;92.20
5134;DHT22;2585;48.696;10.066;2023-05-10T01:54:55;12.30;92.20
5134;DHT22;2585;48.696;10.066;2023-05-10T01:57:26;12.20;92.20
5134;DHT22;2585;48.696;10.066;2023-05-10T01:59:55;12.00;92.10
5134;DHT22;2585;48.696;10.066;2023-05-10T02:02:24;11.90;92.00
5134;DHT22;2585;48.696;10.066;2023-05-10T02:04:53;11.90;92.00
5134;DHT22;2585;48.696;10.066;2023-05-10T02:07:23;11.80;92.00
5134;DHT22;2585;48.696;10.066;2023-05-10T02:09:51;11.80;92.00
5134;DHT22;2585;48.696;10.066;2023-05-10T02:12:18;11.80;92.00
5134;DHT22;2585;48.696;10.066;2023-05-10T02:14:45;11.80;92.00
5134;DHT22;2585;48.696;10.066;2023-05-10T02:17:14;11.70;91.90
5134;DHT22;2585;48.696;10.066;2023-05-10T02:19:42;11.70;91.90
5134;DHT22;2585;48.696;10.066;2023-05-10T02:22:10;11.70;91.90
5134;DHT22;2585;48.696;10.066;2023-05-10T02:24:38;11.70;92.00
5134;DHT22;2585;48.696;10.066;2023-05-10T02:27:06;11.70;92.00
5134;DHT22;2585;48.696;10.066;2023-05-10T02:29:35;11.70;92.00
5134;DHT22;2585;48.696;10.066;2023-05-10T02:32:03;11.60;91.90
5134;DHT22;2585;48.696;10.066;2023-05-10T02:34:31;11.60;91.90
5134;DHT22;2585;48.696;10.066;2023-05-10T02:36:59;11.50;91.90
5134;DHT22;2585;48.696;10.066;2023-05-10T02:39:28;11.40;91.80
5134;DHT22;2585;48.696;10.066;2023-05-10T02:41:57;11.40;91.80
5134;DHT22;2585;48.696;10.066;2023-05-10T02:44:26;11.30;91.80
5134;DHT22;2585;48.696;10.066;2023-05-10T02:46:54;11.30;91.80
5134;DHT22;2585;48.696;10.066;2023-05-10T02:49:22;11.20;91.70
5134;DHT22;2585;48.696;10.066;2023-05-10T02:51:53;11.20;91.70
5134;DHT22;2585;48.696;10.066;2023-05-10T02:54:27;11.10;91.70
5134;DHT22;2585;48.696;10.066;2023-05-10T02:56:57;11.10;91.70
5134;DHT22;2585;48.696;10.066;2023-05-10T02:59:26;11.10;91.70
5134;DHT22;2585;48.696;10.066;2023-05-10T03:01:53;11.10;91.70
5134;DHT22;2585;48.696;10.066;2023-05-10T03:04:20;11.00;91.70
5134;DHT22;2585;48.696;10.066;2023-05-10T03:06:47;11.00;91.70
5134;DHT22;2585;48.696;10.066;2023-05-10T03:09:14;11.00;91.70
5134;DHT22;2585;48.696;10.066;2023-05-10T03:17:04;11.00;91.70
5134;DHT22;2585;48.696;10.066;2023-05-10T03:19:45;11.00;91.70
5134;DHT22;2585;48.696;10.066;2023-05-10T03:22:34;11.00;91.70
5134;DHT22;2585;48.696;10.066;2023-05-10T03:25:06;11.00;91.70
5134;DHT22;2585;48.696;10.066;2023-05-10T03:27:36;10.90;91.60
5134;DHT22;2585;48.696;10.066;2023-05-10T03:30:08;10.90;91.70
5134;DHT22;2585;48.696;10.066;2023-05-10T03:32:35;10.90;91.70
5134;DHT22;2585;48.696;10.066;2023-05-10T03:35:09;10.90;91.70
5134;DHT22;2585;48.696;10.066;2023-05-10T03:37:36;10.90;91.60
5134;DHT22;2585;48.696;10.066;2023-05-10T03:40:03;10.90;91.60
5134;DHT22;2585;48.696;10.066;2023-05-10T03:42:30;10.90;91.60
5134;DHT22;2585;48.696;10.066;2023-05-10T03:44:57;10.90;91.60
5134;DHT22;2585;48.696;10.066;2023-05-10T03:47:24;10.90;91.60
5134;DHT22;2585;48.696;10.066;2023-05-10T03:49:51;10.80;91.60
5134;DHT22;2585;48.696;10.066;2023-05-10T03:52:18;10.80;91.60
5134;DHT22;2585;48.696;10.066;2023-05-10T03:54:45;10.80;91.60
5134;DHT22;2585;48.696;10.066;2023-05-10T03:57:12;10.80;91.60
5134;DHT22;2585;48.696;10.066;2023-05-10T03:59:38;10.80;91.60
5134;DHT22;2585;48.696;10.066;2023-05-10T04:02:05;10.80;91.60
5134;DHT22;2585;48.696;10.066;2023-05-10T04:04:32;10.80;91.60
5134;DHT22;2585;48.696;10.066;2023-05-10T04:06:59;10.80;91.60
5134;DHT22;2585;48.696;10.066;2023-05-10T04:09:26;10.80;91.60
5134;DHT22;2585;48.696;10.066;2023-05-10T04:11:53;10.80;91.70
5134;DHT22;2585;48.696;10.066;2023-05-10T04:14:19;10.80;91.70
5134;DHT22;2585;48.696;10.066;2023-05-10T04:16:46;10.90;91.70
5134;DHT22;2585;48.696;10.066;2023-05-10T04:19:13;10.90;91.70
5134;DHT22;2585;48.696;10.066;2023-05-10T04:21:39;10.90;91.70
5134;DHT22;2585;48.696;10.066;2023-05-10T04:24:07;10.90;91.70
5134;DHT22;2585;48.696;10.066;2023-05-10T04:26:33;10.90;91.70
5134;DHT22;2585;48.696;10.066;2023-05-10T04:29:00;11.00;91.70
5134;DHT22;2585;48.696;10.066;2023-05-10T04:31:27;11.00;91.70
5134;DHT22;2585;48.696;10.066;2023-05-10T04:33:54;11.00;91.70
5134;DHT22;2585;48.696;10.066;2023-05-10T04:36:21;11.00;91.70
5134;DHT22;2585;48.696;10.066;2023-05-10T04:38:48;11.00;91.70
5134;DHT22;2585;48.696;10.066;2023-05-10T04:41:15;11.00;91.70
5134;DHT22;2585;48.696;10.066;2023-05-10T04:43:41;11.10;91.70
5134;DHT22;2585;48.696;10.066;2023-05-10T04:46:08;11.10;91.70
5134;DHT22;2585;48.696;10.066;2023-05-10T04:48:35;11.10;91.70
5134;DHT22;2585;48.696;10.066;2023-05-10T04:51:02;11.20;91.70
5134;DHT22;2585;48.696;10.066;2023-05-10T04:53:30;11.20;91.70
5134;DHT22;2585;48.696;10.066;2023-05-10T04:55:57;11.20;91.70
5134;DHT22;2585;48.696;10.066;2023-05-10T04:58:24;11.20;91.70
5134;DHT22;2585;48.696;10.066;2023-05-10T05:00:51;11.20;91.70
5134;DHT22;2585;48.696;10.066;2023-05-10T05:03:18;11.20;91.70
5134;DHT22;2585;48.696;10.066;2023-05-10T05:05:45;11.30;91.70
5134;DHT22;2585;48.696;10.066;2023-05-10T05:08:12;11.30;91.70
5134;DHT22;2585;48.696;10.066;2023-05-10T05:10:39;11.30;91.70
5134;DHT22;2585;48.696;10.066;2023-05-10T05:13:06;11.30;91.70
5134;DHT22;2585;48.696;10.066;2023-05-10T05:15:33;11.30;91.70
5134;DHT22;2585;48.696;10.066;2023-05-10T05:18:00;11.30;91.70
5134;DHT22;2585;48.696;10.066;2023-05-10T05:20:27;11.30;91.70
5134;DHT22;2585;48.696;10.066;2023-05-10T05:22:54;11.40;91.70
5134;DHT22;2585;48.696;10.066;2023-05-10T05:25:21;11.40;91.70
5134;DHT22;2585;48.696;10.066;2023-05-10T05:27:48;11.50;91.70
5134;DHT22;2585;48.696;10.066;2023-05-10T05:30:14;11.50;91.70
5134;DHT22;2585;48.696;10.066;2023-05-10T05:32:42;11.50;91.70
5134;DHT22;2585;48.696;10.066;2023-05-10T05:35:09;11.50;91.70
5134;DHT22;2585;48.696;10.066;2023-05-10T05:37:36;11.50;91.70
5134;DHT22;2585;48.696;10.066;2023-05-10T05:40:04;11.40;91.70
5134;DHT22;2585;48.696;10.066;2023-05-10T05:42:31;11.40;91.70
5134;DHT22;2585;48.696;10.066;2023-05-10T05:44:58;11.50;91.70
5134;DHT22;2585;48.696;10.066;2023-05-10T05:47:25;11.50;91.70
5134;DHT22;2585;48.696;10.066;2023-05-10T05:49:52;11.50;91.70
5134;DHT22;2585;48.696;10.066;2023-05-10T05:52:19;11.50;91.70
5134;DHT22;2585;48.696;10.066;2023-05-10T05:54:45;11.60;91.70
5134;DHT22;2585;48.696;10.066;2023-05-10T05:57:12;11.60;91.60
5134;DHT22;2585;48.696;10.066;2023-05-10T05:59:39;11.70;91.60
5134;DHT22;2585;48.696;10.066;2023-05-10T06:02:10;11.80;91.70
5134;DHT22;2585;48.696;10.066;2023-05-10T06:04:37;11.90;91.70
5134;DHT22;2585;48.696;10.066;2023-05-10T06:07:04;12.00;91.80
5134;DHT22;2585;48.696;10.066;2023-05-10T06:09:31;12.10;91.70
5134;DHT22;2585;48.696;10.066;2023-05-10T06:11:58;12.10;91.60
5134;DHT22;2585;48.696;10.066;2023-05-10T06:14:25;12.10;91.50
5134;DHT22;2585;48.696;10.066;2023-05-10T06:16:52;12.10;91.50
5134;DHT22;2585;48.696;10.066;2023-05-10T06:19:18;12.10;91.30
5134;DHT22;2585;48.696;10.066;2023-05-10T06:21:45;12.20;91.30
5134;DHT22;2585;48.696;10.066;2023-05-10T06:24:12;12.10;91.20
5134;DHT22;2585;48.696;10.066;2023-05-10T06:26:39;12.10;91.20
5134;DHT22;2585;48.696;10.066;2023-05-10T06:29:06;12.20;91.30
5134;DHT22;2585;48.696;10.066;2023-05-10T06:31:32;12.20;91.30
5134;DHT22;2585;48.696;10.066;2023-05-10T06:33:59;12.20;91.20
5134;DHT22;2585;48.696;10.066;2023-05-10T06:36:26;12.30;91.10
5134;DHT22;2585;48.696;10.066;2023-05-10T06:38:53;12.40;91.00
5134;DHT22;2585;48.696;10.066;2023-05-10T06:41:21;12.40;90.70
5134;DHT22;2585;48.696;10.066;2023-05-10T06:43:50;12.50;90.80
5134;DHT22;2585;48.696;10.066;2023-05-10T06:46:17;12.50;90.40
5134;DHT22;2585;48.696;10.066;2023-05-10T06:48:44;12.60;90.20
5134;DHT22;2585;48.696;10.066;2023-05-10T06:51:11;12.60;89.70
5134;DHT22;2585;48.696;10.066;2023-05-10T06:53:37;12.60;89.10
5134;DHT22;2585;48.696;10.066;2023-05-10T06:56:04;12.60;88.30
5134;DHT22;2585;48.696;10.066;2023-05-10T06:58:31;12.60;88.70
5134;DHT22;2585;48.696;10.066;2023-05-10T07:01:03;12.70;89.30
5134;DHT22;2585;48.696;10.066;2023-05-10T07:03:31;12.80;89.50
5134;DHT22;2585;48.696;10.066;2023-05-10T07:06:04;12.70;88.80
5134;DHT22;2585;48.696;10.066;2023-05-10T07:08:31;12.80;88.10
5134;DHT22;2585;48.696;10.066;2023-05-10T07:11:05;12.90;88.40
5134;DHT22;2585;48.696;10.066;2023-05-10T07:13:34;12.80;86.70
5134;DHT22;2585;48.696;10.066;2023-05-10T07:16:01;13.00;85.40
5134;DHT22;2585;48.696;10.066;2023-05-10T07:18:29;13.10;82.80
5134;DHT22;2585;48.696;10.066;2023-05-10T07:20:56;13.40;82.70
5134;DHT22;2585;48.696;10.066;2023-05-10T07:23:23;13.50;81.40
5134;DHT22;2585;48.696;10.066;2023-05-10T07:25:51;13.70;84.30
5134;DHT22;2585;48.696;10.066;2023-05-10T07:28:19;13.50;81.80
5134;DHT22;2585;48.696;10.066;2023-05-10T07:30:46;13.10;79.50
5134;DHT22;2585;48.696;10.066;2023-05-10T07:33:13;13.10;80.50
5134;DHT22;2585;48.696;10.066;2023-05-10T07:35:40;13.00;83.20
5134;DHT22;2585;48.696;10.066;2023-05-10T07:38:07;13.00;81.60
5134;DHT22;2585;48.696;10.066;2023-05-10T07:40:34;13.30;81.90
5134;DHT22;2585;48.696;10.066;2023-05-10T07:43:01;13.50;82.70
5134;DHT22;2585;48.696;10.066;2023-05-10T07:45:28;13.80;83.70
5134;DHT22;2585;48.696;10.066;2023-05-10T07:47:55;13.90;76.80
5134;DHT22;2585;48.696;10.066;2023-05-10T07:50:22;13.90;67.60
5134;DHT22;2585;48.696;10.066;2023-05-10T07:52:49;13.80;69.10
5134;DHT22;2585;48.696;10.066;2023-05-10T07:55:18;13.80;56.50
5134;DHT22;2585;48.696;10.066;2023-05-10T07:57:45;13.80;16.40
5134;DHT22;2585;48.696;10.066;2023-05-10T08:00:18;13.90;39.80
5134;DHT22;2585;48.696;10.066;2023-05-10T08:02:46;13.90;38.40
5134;DHT22;2585;48.696;10.066;2023-05-10T08:05:13;14.00;63.80
5134;DHT22;2585;48.696;10.066;2023-05-10T08:07:40;13.90;23.80
5134;DHT22;2585;48.696;10.066;2023-05-10T08:10:07;13.70;1.00
5134;DHT22;2585;48.696;10.066;2023-05-10T08:12:34;13.70;1.00
5134;DHT22;2585;48.696;10.066;2023-05-10T08:15:01;13.80;6.20
5134;DHT22;2585;48.696;10.066;2023-05-10T08:17:28;13.80;1.00
5134;DHT22;2585;48.696;10.066;2023-05-10T08:19:55;13.90;1.00
5134;DHT22;2585;48.696;10.066;2023-05-10T08:22:22;14.00;1.00
5134;DHT22;2585;48.696;10.066;2023-05-10T08:24:49;14.10;1.00
5134;DHT22;2585;48.696;10.066;2023-05-10T08:27:15;14.10;1.00
5134;DHT22;2585;48.696;10.066;2023-05-10T08:29:42;14.00;1.00
5134;DHT22;2585;48.696;10.066;2023-05-10T08:32:16;14.00;1.00
5134;DHT22;2585;48.696;10.066;2023-05-10T08:34:43;13.90;1.00
5134;DHT22;2585;48.696;10.066;2023-05-10T08:37:09;13.70;1.00
5134;DHT22;2585;48.696;10.066;2023-05-10T08:39:40;13.70;1.00
5134;DHT22;2585;48.696;10.066;2023-05-10T08:42:07;13.80;55.10
5134;DHT22;2585;48.696;10.066;2023-05-10T08:44:36;13.70;55.40
5134;DHT22;2585;48.696;10.066;2023-05-10T08:47:06;13.70;63.60
5134;DHT22;2585;48.696;10.066;2023-05-10T08:49:35;13.70;64.80
5134;DHT22;2585;48.696;10.066;2023-05-10T08:52:04;13.70;51.60
5134;DHT22;2585;48.696;10.066;2023-05-10T08:54:33;13.70;31.80
5134;DHT22;2585;48.696;10.066;2023-05-10T08:57:01;13.90;42.50
5134;DHT22;2585;48.696;10.066;2023-05-10T08:59:28;13.90;1.00
5134;DHT22;2585;48.696;10.066;2023-05-10T09:01:57;14.00;1.00
5134;DHT22;2585;48.696;10.066;2023-05-10T09:04:25;14.10;1.00
5134;DHT22;2585;48.696;10.066;2023-05-10T09:06:53;14.30;1.00
5134;DHT22;2585;48.696;10.066;2023-05-10T09:09:21;14.50;1.00
5134;DHT22;2585;48.696;10.066;2023-05-10T09:11:48;14.50;1.00
5134;DHT22;2585;48.696;10.066;2023-05-10T09:14:15;14.50;71.80
5134;DHT22;2585;48.696;10.066;2023-05-10T09:16:42;14.40;62.20
5134;DHT22;2585;48.696;10.066;2023-05-10T09:19:09;14.90;75.50
5134;DHT22;2585;48.696;10.066;2023-05-10T09:21:37;15.10;90.80
5134;DHT22;2585;48.696;10.066;2023-05-10T09:24:08;15.10;53.30
5134;DHT22;2585;48.696;10.066;2023-05-10T09:26:36;15.30;1.00
5134;DHT22;2585;48.696;10.066;2023-05-10T09:29:11;15.20;16.50
5134;DHT22;2585;48.696;10.066;2023-05-10T09:31:49;15.50;1.00
5134;DHT22;2585;48.696;10.066;2023-05-10T09:34:30;15.90;6.40
5134;DHT22;2585;48.696;10.066;2023-05-10T09:36:59;15.90;1.00
5134;DHT22;2585;48.696;10.066;2023-05-10T09:39:34;16.00;1.00
5134;DHT22;2585;48.696;10.066;2023-05-10T09:42:07;15.80;66.50
5134;DHT22;2585;48.696;10.066;2023-05-10T09:44:34;15.90;44.20
5134;DHT22;2585;48.696;10.066;2023-05-10T09:47:02;16.20;63.80
5134;DHT22;2585;48.696;10.066;2023-05-10T09:49:29;15.90;1.00
5134;DHT22;2585;48.696;10.066;2023-05-10T09:52:01;16.00;67.00
5134;DHT22;2585;48.696;10.066;2023-05-10T09:54:29;16.40;81.90
5134;DHT22;2585;48.696;10.066;2023-05-10T09:56:56;16.50;1.00
5134;DHT22;2585;48.696;10.066;2023-05-10T09:59:25;16.00;1.00
5134;DHT22;2585;48.696;10.066;2023-05-10T10:01:56;15.70;15.00
5134;DHT22;2585;48.696;10.066;2023-05-10T10:04:23;15.80;1.00
5134;DHT22;2585;48.696;10.066;2023-05-10T10:07:04;15.90;1.00
5134;DHT22;2585;48.696;10.066;2023-05-10T10:09:32;15.90;1.00
5134;DHT22;2585;48.696;10.066;2023-05-10T10:12:00;15.80;83.70
5134;DHT22;2585;48.696;10.066;2023-05-10T10:14:28;15.60;1.00
5134;DHT22;2585;48.696;10.066;2023-05-10T10:16:55;15.50;64.90
5134;DHT22;2585;48.696;10.066;2023-05-10T10:19:34;15.40;1.00
5134;DHT22;2585;48.696;10.066;2023-05-10T10:22:02;15.40;52.50
5134;DHT22;2585;48.696;10.066;2023-05-10T10:24:29;15.50;68.30
5134;DHT22;2585;48.696;10.066;2023-05-10T10:27:01;15.70;88.30
5134;DHT22;2585;48.696;10.066;2023-05-10T10:29:47;15.70;18.10
5134;DHT22;2585;48.696;10.066;2023-05-10T10:34:54;15.20;3.80
5134;DHT22;2585;48.696;10.066;2023-05-10T10:37:21;15.10;41.00
5134;DHT22;2585;48.696;10.066;2023-05-10T10:39:49;14.80;1.00
5134;DHT22;2585;48.696;10.066;2023-05-10T10:42:55;14.60;80.20
5134;DHT22;2585;48.696;10.066;2023-05-10T10:45:23;14.40;56.90
5134;DHT22;2585;48.696;10.066;2023-05-10T10:48:20;14.50;60.90
5134;DHT22;2585;48.696;10.066;2023-05-10T10:50:48;14.60;85.80
5134;DHT22;2585;48.696;10.066;2023-05-10T10:53:22;14.50;1.00
5134;DHT22;2585;48.696;10.066;2023-05-10T10:55:49;14.40;92.40
5134;DHT22;2585;48.696;10.066;2023-05-10T10:58:31;14.30;1.00
5134;DHT22;2585;48.696;10.066;2023-05-10T11:01:18;14.20;74.60
5134;DHT22;2585;48.696;10.066;2023-05-10T11:06:36;14.10;1.00
5134;DHT22;2585;48.696;10.066;2023-05-10T11:09:07;14.30;1.00
5134;DHT22;2585;48.696;10.066;2023-05-10T11:11:35;14.40;72.20
5134;DHT22;2585;48.696;10.066;2023-05-10T11:14:04;14.30;1.00
5134;DHT22;2585;48.696;10.066;2023-05-10T11:16:42;14.50;80.20
5134;DHT22;2585;48.696;10.066;2023-05-10T11:19:13;14.60;1.00
5134;DHT22;2585;48.696;10.066;2023-05-10T11:24:32;14.60;1.00
5134;DHT22;2585;48.696;10.066;2023-05-10T11:27:00;14.70;3.40
5134;DHT22;2585;48.696;10.066;2023-05-10T11:29:27;14.60;1.00
5134;DHT22;2585;48.696;10.066;2023-05-10T11:31:57;14.30;1.00
5134;DHT22;2585;48.696;10.066;2023-05-10T11:34:26;14.40;85.80
5134;DHT22;2585;48.696;10.066;2023-05-10T11:36:55;14.40;73.50
5134;DHT22;2585;48.696;10.066;2023-05-10T11:39:26;14.40;1.00
5134;DHT22;2585;48.696;10.066;2023-05-10T11:41:54;14.50;82.40
5134;DHT22;2585;48.696;10.066;2023-05-10T11:44:21;14.60;65.90
5134;DHT22;2585;48.696;10.066;2023-05-10T11:46:49;14.60;1.00
5134;DHT22;2585;48.696;10.066;2023-05-10T11:49:16;14.70;85.00
5134;DHT22;2585;48.696;10.066;2023-05-10T11:51:43;14.70;1.00
5134;DHT22;2585;48.696;10.066;2023-05-10T11:54:11;14.50;93.10
5134;DHT22;2585;48.696;10.066;2023-05-10T11:56:39;14.40;1.00
5134;DHT22;2585;48.696;10.066;2023-05-10T11:59:06;14.10;61.00
5134;DHT22;2585;48.696;10.066;2023-05-10T12:01:34;14.00;50.70
5134;DHT22;2585;48.696;10.066;2023-05-10T12:04:02;13.90;32.80
5134;DHT22;2585;48.696;10.066;2023-05-10T12:06:31;14.00;80.00
5134;DHT22;2585;48.696;10.066;2023-05-10T12:08:59;14.00;1.00
5134;DHT22;2585;48.696;10.066;2023-05-10T12:11:27;14.00;81.20
5134;DHT22;2585;48.696;10.066;2023-05-10T12:13:55;14.10;79.90
5134;DHT22;2585;48.696;10.066;2023-05-10T12:16:24;14.10;67.50
5134;DHT22;2585;48.696;10.066;2023-05-10T12:18:53;14.10;84.90
5134;DHT22;2585;48.696;10.066;2023-05-10T12:21:21;14.00;89.50
5134;DHT22;2585;48.696;10.066;2023-05-10T12:23:51;13.90;15.60
5134;DHT22;2585;48.696;10.066;2023-05-10T12:26:21;13.90;69.70
5134;DHT22;2585;48.696;10.066;2023-05-10T12:28:48;13.80;1.00
5134;DHT22;2585;48.696;10.066;2023-05-10T12:31:15;13.90;1.00
5134;DHT22;2585;48.696;10.066;2023-05-10T12:33:43;14.00;1.00
5134;DHT22;2585;48.696;10.066;2023-05-10T12:36:13;14.10;1.00
5134;DHT22;2585;48.696;10.066;2023-05-10T12:38:44;14.10;1.00
5134;DHT22;2585;48.696;10.066;2023-05-10T12:41:18;14.10;92.50
5134;DHT22;2585;48.696;10.066;2023-05-10T12:43:45;14.00;90.10
5134;DHT22;2585;48.696;10.066;2023-05-10T12:46:14;14.10;83.90
5134;DHT22;2585;48.696;10.066;2023-05-10T12:48:43;14.10;72.50
5134;DHT22;2585;48.696;10.066;2023-05-10T12:51:10;14.30;1.00
5134;DHT22;2585;48.696;10.066;2023-05-10T12:53:43;14.50;90.00
5134;DHT22;2585;48.696;10.066;2023-05-10T12:56:15;14.70;24.90
5134;DHT22;2585;48.696;10.066;2023-05-10T12:58:41;14.70;1.00
5134;DHT22;2585;48.696;10.066;2023-05-10T13:01:14;14.70;1.00
5134;DHT22;2585;48.696;10.066;2023-05-10T13:03:41;14.50;66.60
5134;DHT22;2585;48.696;10.066;2023-05-10T13:06:09;14.00;62.40
5134;DHT22;2585;48.696;10.066;2023-05-10T13:08:36;13.50;1.00
5134;DHT22;2585;48.696;10.066;2023-05-10T13:11:03;13.10;1.00
5134;DHT22;2585;48.696;10.066;2023-05-10T13:13:30;12.60;1.00
5134;DHT22;2585;48.696;10.066;2023-05-10T13:15:57;12.30;1.00
5134;DHT22;2585;48.696;10.066;2023-05-10T13:18:23;12.10;43.80
5134;DHT22;2585;48.696;10.066;2023-05-10T13:20:51;11.90;10.30
5134;DHT22;2585;48.696;10.066;2023-05-10T13:23:18;11.80;89.20
5134;DHT22;2585;48.696;10.066;2023-05-10T13:25:44;11.60;1.00
5134;DHT22;2585;48.696;10.066;2023-05-10T13:28:11;11.60;5.40
5134;DHT22;2585;48.696;10.066;2023-05-10T13:30:38;11.50;5.20
5134;DHT22;2585;48.696;10.066;2023-05-10T13:33:05;11.50;68.90
5134;DHT22;2585;48.696;10.066;2023-05-10T13:35:32;11.50;77.80
5134;DHT22;2585;48.696;10.066;2023-05-10T13:37:58;11.70;87.30
5134;DHT22;2585;48.696;10.066;2023-05-10T13:40:25;11.60;78.80
5134;DHT22;2585;48.696;10.066;2023-05-10T13:42:52;11.70;84.60
5134;DHT22;2585;48.696;10.066;2023-05-10T13:45:19;11.90;73.00
5134;DHT22;2585;48.696;10.066;2023-05-10T13:47:46;11.90;79.60
5134;DHT22;2585;48.696;10.066;2023-05-10T13:50:13;11.90;59.90
5134;DHT22;2585;48.696;10.066;2023-05-10T13:52:40;11.90;77.70
5134;DHT22;2585;48.696;10.066;2023-05-10T13:55:07;11.90;1.00
5134;DHT22;2585;48.696;10.066;2023-05-10T13:57:34;11.80;85.10
5134;DHT22;2585;48.696;10.066;2023-05-10T14:00:02;11.70;65.60
5134;DHT22;2585;48.696;10.066;2023-05-10T14:02:29;11.60;67.80
5134;DHT22;2585;48.696;10.066;2023-05-10T14:04:56;11.70;70.90
5134;DHT22;2585;48.696;10.066;2023-05-10T14:07:23;11.70;1.00
5134;DHT22;2585;48.696;10.066;2023-05-10T14:09:50;11.80;91.70
5134;DHT22;2585;48.696;10.066;2023-05-10T14:12:16;11.90;64.00
5134;DHT22;2585;48.696;10.066;2023-05-10T14:14:43;12.10;92.30
5134;DHT22;2585;48.696;10.066;2023-05-10T14:17:10;12.00;60.20
5134;DHT22;2585;48.696;10.066;2023-05-10T14:19:38;12.30;88.60
5134;DHT22;2585;48.696;10.066;2023-05-10T14:22:05;12.30;67.50
5134;DHT22;2585;48.696;10.066;2023-05-10T14:24:32;12.40;91.00
5134;DHT22;2585;48.696;10.066;2023-05-10T14:26:59;12.60;1.00
5134;DHT22;2585;48.696;10.066;2023-05-10T14:29:26;12.60;64.10
5134;DHT22;2585;48.696;10.066;2023-05-10T14:31:53;12.90;90.90
5134;DHT22;2585;48.696;10.066;2023-05-10T14:34:20;12.70;1.00
5134;DHT22;2585;48.696;10.066;2023-05-10T14:36:47;12.90;92.20
5134;DHT22;2585;48.696;10.066;2023-05-10T14:39:14;12.70;22.30
5134;DHT22;2585;48.696;10.066;2023-05-10T14:41:41;12.80;72.50
5134;DHT22;2585;48.696;10.066;2023-05-10T14:44:10;12.90;1.00
5134;DHT22;2585;48.696;10.066;2023-05-10T14:46:37;12.90;78.40
5134;DHT22;2585;48.696;10.066;2023-05-10T14:49:04;12.90;61.50
5134;DHT22;2585;48.696;10.066;2023-05-10T14:51:31;12.90;69.60
5134;DHT22;2585;48.696;10.066;2023-05-10T14:53:58;13.00;1.00
5134;DHT22;2585;48.696;10.066;2023-05-10T14:56:25;13.00;87.40
5134;DHT22;2585;48.696;10.066;2023-05-10T14:58:52;13.10;74.20
5134;DHT22;2585;48.696;10.066;2023-05-10T15:01:19;13.20;77.00
5134;DHT22;2585;48.696;10.066;2023-05-10T15:03:47;13.40;1.00
5134;DHT22;2585;48.696;10.066;2023-05-10T15:06:15;13.30;58.50
5134;DHT22;2585;48.696;10.066;2023-05-10T15:08:44;13.10;37.20
5134;DHT22;2585;48.696;10.066;2023-05-10T15:11:11;13.10;1.00
5134;DHT22;2585;48.696;10.066;2023-05-10T15:13:38;13.10;68.00
5134;DHT22;2585;48.696;10.066;2023-05-10T15:16:05;13.10;1.00
5134;DHT22;2585;48.696;10.066;2023-05-10T15:18:32;13.10;1.00
5134;DHT22;2585;48.696;10.066;2023-05-10T15:20:58;13.10;1.00
5134;DHT22;2585;48.696;10.066;2023-05-10T15:23:25;13.20;19.60
5134;DHT22;2585;48.696;10.066;2023-05-10T15:25:53;13.30;69.90
5134;DHT22;2585;48.696;10.066;2023-05-10T15:28:22;13.50;65.10
5134;DHT22;2585;48.696;10.066;2023-05-10T15:30:49;13.30;1.00
5134;DHT22;2585;48.696;10.066;2023-05-10T15:33:16;13.20;1.00
5134;DHT22;2585;48.696;10.066;2023-05-10T15:35:43;13.30;14.70
5134;DHT22;2585;48.696;10.066;2023-05-10T15:38:09;13.30;61.10
5134;DHT22;2585;48.696;10.066;2023-05-10T15:40:37;13.30;1.00
5134;DHT22;2585;48.696;10.066;2023-05-10T15:43:03;13.20;1.00
5134;DHT22;2585;48.696;10.066;2023-05-10T15:45:31;13.30;1.00
5134;DHT22;2585;48.696;10.066;2023-05-10T15:48:00;13.40;1.00
5134;DHT22;2585;48.696;10.066;2023-05-10T15:50:27;13.60;70.10
5134;DHT22;2585;48.696;10.066;2023-05-10T15:52:54;13.50;1.00
5134;DHT22;2585;48.696;10.066;2023-05-10T15:55:21;13.40;91.40
5134;DHT22;2585;48.696;10.066;2023-05-10T15:57:48;13.40;1.00
5134;DHT22;2585;48.696;10.066;2023-05-10T16:00:16;13.40;1.00
5134;DHT22;2585;48.696;10.066;2023-05-10T16:02:43;13.40;1.00
5134;DHT22;2585;48.696;10.066;2023-05-10T16:05:10;13.50;1.00
5134;DHT22;2585;48.696;10.066;2023-05-10T16:07:37;13.30;1.00
5134;DHT22;2585;48.696;10.066;2023-05-10T16:10:04;13.20;1.00
5134;DHT22;2585;48.696;10.066;2023-05-10T16:12:32;13.20;1.00
5134;DHT22;2585;48.696;10.066;2023-05-10T16:14:59;13.10;92.40
5134;DHT22;2585;48.696;10.066;2023-05-10T16:17:25;13.10;1.00
5134;DHT22;2585;48.696;10.066;2023-05-10T16:19:52;13.00;86.00
5134;DHT22;2585;48.696;10.066;2023-05-10T16:22:19;13.00;1.00
5134;DHT22;2585;48.696;10.066;2023-05-10T16:24:48;12.90;1.00
5134;DHT22;2585;48.696;10.066;2023-05-10T16:27:19;12.90;85.80
5134;DHT22;2585;48.696;10.066;2023-05-10T16:29:46;12.90;1.00
5134;DHT22;2585;48.696;10.066;2023-05-10T16:32:13;13.00;62.40
5134;DHT22;2585;48.696;10.066;2023-05-10T16:34:40;13.00;1.00
5134;DHT22;2585;48.696;10.066;2023-05-10T16:37:07;12.90;3.90